This is the latest recevied weather packets stored in our database for station/object LZ2SLL-13. If no packets are shown the sender has not sent any weather packets the latest 1 day(s).
| Time | Temp. | Humidity | Pressure | Rain* | Wind** | Luminosity | Snow |
|---|---|---|---|---|---|---|---|
| 1777979825 | 17.78° C | 50% | - | 0 mm | 0.89 m/s, 199° | 944 W/m² | - |
| 1777979525 | 17.78° C | 50% | - | 0 mm | 2.68 m/s, 191° | 950 W/m² | - |
| 1777979224 | 18.33° C | 45% | - | 0 mm | 0.89 m/s, 194° | 959 W/m² | - |
| 1777978923 | 19.44° C | 42% | - | 0 mm | 1.34 m/s, 180° | 971 W/m² | - |
| 1777978622 | 20° C | 40% | - | 0 mm | 0.89 m/s, 185° | 979 W/m² | - |
| 1777978321 | 20° C | 39% | - | 0 mm | 0.89 m/s, 148° | 984 W/m² | - |
| 1777978021 | 20.56° C | 39% | - | 0 mm | 1.34 m/s, 190° | 990 W/m² | - |
| 1777977720 | 20.56° C | 38% | - | 0 mm | 0.89 m/s, 105° | 986 W/m² | - |
| 1777977419 | 20° C | 40% | - | 0 mm | 0.89 m/s, 65° | 985 W/m² | - |
| 1777977118 | 20° C | 38% | - | 0 mm | 0.89 m/s, 190° | 993 W/m² | - |
| 1777976817 | 20° C | 39% | - | 0 mm | 1.34 m/s, 99° | 998 W/m² | - |
| 1777976517 | 20° C | 39% | - | 0 mm | 0.89 m/s, 81° | 1003 W/m² | - |
| 1777976216 | 20.56° C | 39% | - | 0 mm | 0.89 m/s, 181° | 1001 W/m² | - |
| 1777975915 | 20.56° C | 39% | - | 0 mm | 0.89 m/s, 180° | 1003 W/m² | - |
| 1777975614 | 20° C | 39% | - | 0 mm | 0.89 m/s, 227° | 1005 W/m² | - |
| 1777975314 | 20° C | 40% | - | 0 mm | 1.34 m/s, 188° | 1004 W/m² | - |
| 1777975013 | 20° C | 38% | - | 0 mm | 0.89 m/s, 342° | 1006 W/m² | - |
| 1777974713 | 20.56° C | 38% | - | 0 mm | 0.89 m/s, 235° | 1005 W/m² | - |
| 1777974411 | 20.56° C | 39% | - | 0 mm | 0.89 m/s, 253° | 994 W/m² | - |
| 1777974110 | 20° C | 40% | - | 0 mm | 0.89 m/s, 186° | 995 W/m² | - |
| 1777973810 | 19.44° C | 41% | - | 0 mm | 0.89 m/s, 158° | 989 W/m² | - |
| 1777973509 | 19.44° C | 43% | - | 0 mm | 0.89 m/s, 155° | 982 W/m² | - |
| 1777973208 | 18.89° C | 42% | - | 0 mm | 1.34 m/s, 161° | 978 W/m² | - |
| 1777972908 | 18.89° C | 42% | - | 0 mm | 1.79 m/s, 195° | 971 W/m² | - |
| 1777972607 | 18.33° C | 45% | - | 0 mm | 1.79 m/s, 143° | 966 W/m² | - |
* Rain latest hour (hover to see other rain measurements)
** Current wind speed in m/s (hover to see current wind gust speed)